Millboro, South Dakota
Current Conditions -  °F | °C
As of 6:02 PM on Monday 22 Dec 2014 (Local Time) from KICR Reporting Station
Light Snow Light Snow  
Wind Chill: 21°   Ceiling: 800
Heat Index: 33°   Visibility: 3mi
Dew Point: 30°   Wind: 21mph
Humidity: 89%   Direction: 310°NW
Pressure: 29.51"   Gusts: NA
Location:  43.2923°N, 99.8934°W
Report Text: KICR 230002Z AUTO 31018KT 3SM -SN BR BKN008 BKN011 OVC027 01/M01 A2951 RMK AO2 CIG 005V009 P0000 T00061011
Loading
Personal Weather Stations






























Interactive Weather Map New forecast layout! Learn more

10-Day Weather Forecast

Advertisements
Track Severe Weather on mobile